Time,TemperatureF,DewpointF,PressureIn,WindDirection,WindDirectionDegrees,WindSpeedMPH,WindSpeedGustMPH,Humidity,HourlyPrecipIn,Conditions,Clouds,dailyrainin,SolarRadiationWatts/m^2,SoftwareType,DateUTC
2013-06-09 00:02:00,61.0,40.0,-100.00,WSW,242,6.0,9.0,45,0.00,,,0.00,0.000000,,2013-06-09 07:02:00,
2013-06-09 00:11:00,61.0,40.0,-100.00,WSW,242,6.0,9.0,45,0.00,,,0.00,0.000000,,2013-06-09 07:11:00,
2013-06-09 00:32:00,59.0,39.0,-100.00,SW,234,4.0,10.0,48,0.00,,,0.00,0.000000,,2013-06-09 07:32:00,
2013-06-09 00:42:00,59.0,39.0,-100.00,SW,234,4.0,10.0,48,0.00,,,0.00,0.000000,,2013-06-09 07:42:00,
2013-06-09 00:52:00,59.0,39.0,-100.00,SW,234,4.0,10.0,48,0.00,,,0.00,0.000000,,2013-06-09 07:52:00,
2013-06-09 01:02:00,59.0,39.0,-100.00,SW,234,4.0,10.0,48,0.00,,,0.00,0.000000,,2013-06-09 08:02:00,
2013-06-09 01:12:00,59.0,39.0,-100.00,SW,234,4.0,10.0,48,0.00,,,0.00,0.000000,,2013-06-09 08:12:00,
2013-06-09 01:32:00,58.0,40.0,-100.00,South,171,4.0,6.0,52,0.00,,,0.00,0.000000,,2013-06-09 08:32:00,
2013-06-09 01:42:00,58.0,40.0,-100.00,South,171,4.0,6.0,52,0.00,,,0.00,0.000000,,2013-06-09 08:42:00,
2013-06-09 01:53:00,58.0,40.0,-100.00,South,171,4.0,6.0,52,0.00,,,0.00,0.000000,,2013-06-09 08:53:00,
2013-06-09 02:02:00,58.0,40.0,-100.00,South,171,4.0,6.0,52,0.00,,,0.00,0.000000,,2013-06-09 09:02:00,
2013-06-09 02:12:00,58.0,40.0,-100.00,South,171,4.0,6.0,52,0.00,,,0.00,0.000000,,2013-06-09 09:12:00,
2013-06-09 02:33:00,56.0,40.0,-100.00,WNW,290,3.0,6.0,54,0.00,,,0.00,0.000000,,2013-06-09 09:33:00,
2013-06-09 02:43:00,56.0,40.0,-100.00,WNW,290,3.0,6.0,54,0.00,,,0.00,0.000000,,2013-06-09 09:43:00,
2013-06-09 02:52:00,56.0,40.0,-100.00,WNW,290,3.0,6.0,54,0.00,,,0.00,0.000000,,2013-06-09 09:52:00,
2013-06-09 03:03:00,56.0,40.0,-100.00,WNW,290,3.0,6.0,54,0.00,,,0.00,0.000000,,2013-06-09 10:03:00,
2013-06-09 03:12:00,56.0,40.0,-100.00,WNW,290,3.0,6.0,54,0.00,,,0.00,0.000000,,2013-06-09 10:12:00,
2013-06-09 03:32:00,56.0,40.0,-100.00,WSW,242,3.0,4.0,55,0.00,,,0.00,0.000000,,2013-06-09 10:32:00,
2013-06-09 03:43:00,56.0,40.0,-100.00,WSW,242,3.0,4.0,55,0.00,,,0.00,0.000000,,2013-06-09 10:43:00,
2013-06-09 03:52:00,56.0,40.0,-100.00,WSW,242,3.0,4.0,55,0.00,,,0.00,0.000000,,2013-06-09 10:52:00,
2013-06-09 04:02:00,56.0,40.0,-100.00,WSW,242,3.0,4.0,55,0.00,,,0.00,0.000000,,2013-06-09 11:02:00,
2013-06-09 04:11:00,56.0,40.0,-100.00,WSW,242,3.0,4.0,55,0.00,,,0.00,0.000000,,2013-06-09 11:11:00,
2013-06-09 04:32:00,55.0,40.0,-100.00,SW,220,5.0,7.0,56,0.00,,,0.00,0.000000,,2013-06-09 11:32:00,
2013-06-09 04:42:00,55.0,40.0,-100.00,SW,220,5.0,7.0,56,0.00,,,0.00,0.000000,,2013-06-09 11:42:00,
2013-06-09 04:52:00,55.0,40.0,-100.00,SW,220,5.0,7.0,56,0.00,,,0.00,0.000000,,2013-06-09 11:52:00,
2013-06-09 05:02:00,55.0,40.0,-100.00,SW,220,5.0,7.0,56,0.00,,,0.00,0.000000,,2013-06-09 12:02:00,
2013-06-09 05:12:00,55.0,40.0,-100.00,SW,220,5.0,7.0,56,0.00,,,0.00,0.000000,,2013-06-09 12:12:00,
2013-06-09 05:32:00,53.0,39.0,-100.00,WSW,240,4.0,7.0,59,0.00,,,0.00,1.000000,,2013-06-09 12:32:00,
2013-06-09 05:42:00,53.0,39.0,-100.00,WSW,240,4.0,7.0,59,0.00,,,0.00,1.000000,,2013-06-09 12:42:00,
2013-06-09 05:52:00,53.0,39.0,-100.00,WSW,240,4.0,7.0,59,0.00,,,0.00,1.000000,,2013-06-09 12:52:00,
2013-06-09 06:02:00,53.0,39.0,-100.00,WSW,240,4.0,7.0,59,0.00,,,0.00,1.000000,,2013-06-09 13:02:00,
2013-06-09 06:12:00,53.0,39.0,-100.00,WSW,240,4.0,7.0,59,0.00,,,0.00,1.000000,,2013-06-09 13:12:00,
2013-06-09 06:32:00,55.0,42.0,-100.00,South,170,4.0,8.0,61,0.00,,,0.00,40.000000,,2013-06-09 13:32:00,
2013-06-09 06:42:00,55.0,42.0,-100.00,South,170,4.0,8.0,61,0.00,,,0.00,40.000000,,2013-06-09 13:42:00,
2013-06-09 06:52:00,55.0,42.0,-100.00,South,170,4.0,8.0,61,0.00,,,0.00,40.000000,,2013-06-09 13:52:00,
2013-06-09 07:02:00,55.0,42.0,-100.00,South,170,4.0,8.0,61,0.00,,,0.00,40.000000,,2013-06-09 14:02:00,
2013-06-09 07:11:00,55.0,42.0,-100.00,South,170,4.0,8.0,61,0.00,,,0.00,40.000000,,2013-06-09 14:11:00,
2013-06-09 07:32:00,60.0,45.0,-100.00,SW,217,2.0,5.0,57,0.00,,,0.00,208.000000,,2013-06-09 14:32:00,
2013-06-09 07:43:00,60.0,45.0,-100.00,SW,217,2.0,5.0,57,0.00,,,0.00,208.000000,,2013-06-09 14:43:00,
2013-06-09 07:52:00,60.0,45.0,-100.00,SW,217,2.0,5.0,57,0.00,,,0.00,208.000000,,2013-06-09 14:52:00,
2013-06-09 08:02:00,60.0,45.0,-100.00,SW,217,2.0,5.0,57,0.00,,,0.00,208.000000,,2013-06-09 15:02:00,
2013-06-09 08:11:00,60.0,45.0,-100.00,SW,217,2.0,5.0,57,0.00,,,0.00,208.000000,,2013-06-09 15:11:00,
2013-06-09 08:33:00,62.0,45.0,-100.00,NNW,347,3.0,7.0,53,0.00,,,0.00,416.000000,,2013-06-09 15:33:00,
2013-06-09 08:43:00,62.0,45.0,-100.00,NNW,347,3.0,7.0,53,0.00,,,0.00,416.000000,,2013-06-09 15:43:00,
2013-06-09 08:53:00,62.0,45.0,-100.00,NNW,347,3.0,7.0,53,0.00,,,0.00,416.000000,,2013-06-09 15:53:00,
2013-06-09 09:03:00,62.0,45.0,-100.00,NNW,347,3.0,7.0,53,0.00,,,0.00,416.000000,,2013-06-09 16:03:00,
2013-06-09 09:12:00,62.0,45.0,-100.00,NNW,347,3.0,7.0,53,0.00,,,0.00,416.000000,,2013-06-09 16:12:00,
2013-06-09 09:33:00,65.0,45.0,-100.00,NW,320,4.0,6.0,49,0.00,,,0.00,631.000000,,2013-06-09 16:33:00,
2013-06-09 09:42:00,65.0,45.0,-100.00,NW,320,4.0,6.0,49,0.00,,,0.00,631.000000,,2013-06-09 16:42:00,
2013-06-09 09:53:00,65.0,45.0,-100.00,NW,320,4.0,6.0,49,0.00,,,0.00,631.000000,,2013-06-09 16:53:00,
2013-06-09 10:02:00,65.0,45.0,-100.00,NW,320,4.0,6.0,49,0.00,,,0.00,631.000000,,2013-06-09 17:02:00,
2013-06-09 10:12:00,65.0,45.0,-100.00,NW,320,4.0,6.0,49,0.00,,,0.00,631.000000,,2013-06-09 17:12:00,
2013-06-09 10:32:00,68.0,46.0,-100.00,NNW,344,7.0,12.0,45,0.00,,,0.00,829.000000,,2013-06-09 17:32:00,
2013-06-09 10:42:00,68.0,46.0,-100.00,NNW,344,7.0,12.0,45,0.00,,,0.00,829.000000,,2013-06-09 17:42:00,
2013-06-09 10:52:00,68.0,46.0,-100.00,NNW,344,7.0,12.0,45,0.00,,,0.00,829.000000,,2013-06-09 17:52:00,
2013-06-09 11:02:00,68.0,46.0,-100.00,NNW,344,7.0,12.0,45,0.00,,,0.00,829.000000,,2013-06-09 18:02:00,
2013-06-09 11:11:00,68.0,46.0,-100.00,NNW,344,7.0,12.0,45,0.00,,,0.00,829.000000,,2013-06-09 18:11:00,
2013-06-09 11:33:00,71.0,42.0,-100.00,NNW,348,9.0,15.0,35,0.00,,,0.00,990.000000,,2013-06-09 18:33:00,
2013-06-09 11:42:00,71.0,42.0,-100.00,NNW,348,9.0,15.0,35,0.00,,,0.00,990.000000,,2013-06-09 18:42:00,
2013-06-09 11:52:00,71.0,42.0,-100.00,NNW,348,9.0,15.0,35,0.00,,,0.00,990.000000,,2013-06-09 18:52:00,
2013-06-09 12:02:00,71.0,42.0,-100.00,NNW,348,9.0,15.0,35,0.00,,,0.00,990.000000,,2013-06-09 19:02:00,
2013-06-09 12:11:00,71.0,42.0,-100.00,NNW,348,9.0,15.0,35,0.00,,,0.00,990.000000,,2013-06-09 19:11:00,
2013-06-09 12:32:00,74.0,30.0,-100.00,WNW,285,9.0,17.0,20,0.00,,,0.00,1108.000000,,2013-06-09 19:32:00,
2013-06-09 12:43:00,74.0,30.0,-100.00,WNW,285,9.0,17.0,20,0.00,,,0.00,1108.000000,,2013-06-09 19:43:00,
2013-06-09 12:52:00,74.0,30.0,-100.00,WNW,285,9.0,17.0,20,0.00,,,0.00,1108.000000,,2013-06-09 19:52:00,
2013-06-09 13:02:00,74.0,30.0,-100.00,WNW,285,9.0,17.0,20,0.00,,,0.00,1108.000000,,2013-06-09 20:02:00,
2013-06-09 13:12:00,74.0,30.0,-100.00,WNW,285,9.0,17.0,20,0.00,,,0.00,1108.000000,,2013-06-09 20:12:00,
2013-06-09 13:32:00,74.0,26.0,-100.00,WNW,301,12.0,19.0,17,0.00,,,-99.99,1143.000000,,2013-06-09 20:32:00,
2013-06-09 13:42:00,74.0,26.0,-100.00,WNW,301,12.0,19.0,17,0.00,,,-99.99,1143.000000,,2013-06-09 20:42:00,
2013-06-09 13:52:00,74.0,26.0,-100.00,WNW,301,12.0,19.0,17,0.00,,,-99.99,1143.000000,,2013-06-09 20:52:00,
2013-06-09 14:02:00,74.0,26.0,-100.00,WNW,301,12.0,19.0,17,0.00,,,-99.99,1143.000000,,2013-06-09 21:02:00,
2013-06-09 14:33:00,75.0,24.0,-100.00,NW,317,9.0,19.0,15,0.00,,,0.00,1117.000000,,2013-06-09 21:33:00,
2013-06-09 14:43:00,75.0,24.0,-100.00,NW,317,9.0,19.0,15,0.00,,,0.00,1117.000000,,2013-06-09 21:43:00,
2013-06-09 14:53:00,75.0,24.0,-100.00,NW,317,9.0,19.0,15,0.00,,,0.00,1117.000000,,2013-06-09 21:53:00,
2013-06-09 15:02:00,75.0,24.0,-100.00,NW,317,9.0,19.0,15,0.00,,,0.00,1117.000000,,2013-06-09 22:02:00,
2013-06-09 15:33:00,76.0,29.0,-100.00,West,268,10.0,17.0,18,0.00,,,0.00,794.000000,,2013-06-09 22:33:00,
2013-06-09 15:42:00,76.0,29.0,-100.00,West,268,10.0,17.0,18,0.00,,,0.00,794.000000,,2013-06-09 22:42:00,
2013-06-09 15:52:00,76.0,29.0,-100.00,West,268,10.0,17.0,18,0.00,,,0.00,794.000000,,2013-06-09 22:52:00,
2013-06-09 16:02:00,76.0,29.0,-100.00,West,268,10.0,17.0,18,0.00,,,0.00,794.000000,,2013-06-09 23:02:00,
2013-06-09 16:12:00,76.0,29.0,-100.00,West,268,10.0,17.0,18,0.00,,,0.00,794.000000,,2013-06-09 23:12:00,
2013-06-09 16:32:00,76.0,29.0,-100.00,WNW,294,12.0,21.0,18,0.00,,,0.00,905.000000,,2013-06-09 23:32:00,
2013-06-09 16:43:00,76.0,29.0,-100.00,WNW,294,12.0,21.0,18,0.00,,,0.00,905.000000,,2013-06-09 23:43:00,
2013-06-09 16:52:00,76.0,29.0,-100.00,WNW,294,12.0,21.0,18,0.00,,,0.00,905.000000,,2013-06-09 23:52:00,
2013-06-09 17:02:00,76.0,29.0,-100.00,WNW,294,12.0,21.0,18,0.00,,,0.00,905.000000,,2013-06-10 00:02:00,
2013-06-09 17:11:00,76.0,29.0,-100.00,WNW,294,12.0,21.0,18,0.00,,,0.00,905.000000,,2013-06-10 00:11:00,
2013-06-09 17:32:00,75.0,27.0,-100.00,NW,305,14.0,20.0,17,0.00,,,0.00,773.000000,,2013-06-10 00:32:00,
2013-06-09 17:42:00,75.0,27.0,-100.00,NW,305,14.0,20.0,17,0.00,,,0.00,773.000000,,2013-06-10 00:42:00,
2013-06-09 17:52:00,75.0,27.0,-100.00,NW,305,14.0,20.0,17,0.00,,,0.00,773.000000,,2013-06-10 00:52:00,
2013-06-09 18:02:00,75.0,27.0,-100.00,NW,305,14.0,20.0,17,0.00,,,0.00,773.000000,,2013-06-10 01:02:00,
2013-06-09 18:12:00,75.0,27.0,-100.00,NW,305,14.0,20.0,17,0.00,,,0.00,773.000000,,2013-06-10 01:12:00,
2013-06-09 18:32:00,72.0,23.0,-100.00,WNW,298,13.0,21.0,16,0.00,,,0.00,575.000000,,2013-06-10 01:32:00,
2013-06-09 18:43:00,72.0,23.0,-100.00,WNW,298,13.0,21.0,16,0.00,,,0.00,575.000000,,2013-06-10 01:43:00,
2013-06-09 18:52:00,72.0,23.0,-100.00,WNW,298,13.0,21.0,16,0.00,,,0.00,575.000000,,2013-06-10 01:52:00,
2013-06-09 19:02:00,72.0,23.0,-100.00,WNW,298,13.0,21.0,16,0.00,,,0.00,575.000000,,2013-06-10 02:02:00,
2013-06-09 19:12:00,72.0,23.0,-100.00,WNW,298,13.0,21.0,16,0.00,,,0.00,575.000000,,2013-06-10 02:12:00,
2013-06-09 19:32:00,68.0,19.0,-100.00,WNW,300,14.0,21.0,15,0.00,,,0.00,362.000000,,2013-06-10 02:32:00,
2013-06-09 19:42:00,68.0,19.0,-100.00,WNW,300,14.0,21.0,15,0.00,,,0.00,362.000000,,2013-06-10 02:42:00,
2013-06-09 19:52:00,68.0,19.0,-100.00,WNW,300,14.0,21.0,15,0.00,,,0.00,362.000000,,2013-06-10 02:52:00,
2013-06-09 20:02:00,68.0,19.0,-100.00,WNW,300,14.0,21.0,15,0.00,,,0.00,362.000000,,2013-06-10 03:02:00,
2013-06-09 20:12:00,68.0,19.0,-100.00,WNW,300,14.0,21.0,15,0.00,,,0.00,362.000000,,2013-06-10 03:12:00,
2013-06-09 20:33:00,64.0,12.0,-100.00,NW,312,11.0,19.0,13,0.00,,,0.00,161.000000,,2013-06-10 03:33:00,
2013-06-09 20:43:00,64.0,12.0,-100.00,NW,312,11.0,19.0,13,0.00,,,0.00,161.000000,,2013-06-10 03:43:00,
2013-06-09 20:53:00,64.0,12.0,-100.00,NW,312,11.0,19.0,13,0.00,,,0.00,161.000000,,2013-06-10 03:53:00,
2013-06-09 21:03:00,64.0,12.0,-100.00,NW,312,11.0,19.0,13,0.00,,,0.00,161.000000,,2013-06-10 04:03:00,
2013-06-09 21:12:00,64.0,12.0,-100.00,NW,312,11.0,19.0,13,0.00,,,0.00,161.000000,,2013-06-10 04:12:00,
2013-06-09 21:33:00,58.0,20.0,-100.00,NW,317,10.0,17.0,23,0.00,,,0.00,15.000000,,2013-06-10 04:33:00,
2013-06-09 21:42:00,58.0,20.0,-100.00,NW,317,10.0,17.0,23,0.00,,,0.00,15.000000,,2013-06-10 04:42:00,
2013-06-09 21:52:00,58.0,20.0,-100.00,NW,317,10.0,17.0,23,0.00,,,0.00,15.000000,,2013-06-10 04:52:00,
2013-06-09 22:02:00,58.0,20.0,-100.00,NW,317,10.0,17.0,23,0.00,,,0.00,15.000000,,2013-06-10 05:02:00,
2013-06-09 22:12:00,58.0,20.0,-100.00,NW,317,10.0,17.0,23,0.00,,,0.00,15.000000,,2013-06-10 05:12:00,
2013-06-09 22:32:00,55.0,23.0,-100.00,WNW,286,6.0,12.0,28,0.00,,,0.00,0.000000,,2013-06-10 05:32:00,
2013-06-09 22:42:00,55.0,23.0,-100.00,WNW,286,6.0,12.0,28,0.00,,,0.00,0.000000,,2013-06-10 05:42:00,
2013-06-09 22:52:00,55.0,23.0,-100.00,WNW,286,6.0,12.0,28,0.00,,,0.00,0.000000,,2013-06-10 05:52:00,
2013-06-09 23:02:00,55.0,23.0,-100.00,WNW,286,6.0,12.0,28,0.00,,,0.00,0.000000,,2013-06-10 06:02:00,
2013-06-09 23:12:00,55.0,23.0,-100.00,WNW,286,6.0,12.0,28,0.00,,,0.00,0.000000,,2013-06-10 06:12:00,
2013-06-09 23:32:00,52.0,19.0,-100.00,SE,146,4.0,9.0,27,0.00,,,0.00,0.000000,,2013-06-10 06:32:00,
2013-06-09 23:42:00,52.0,19.0,-100.00,SE,146,4.0,9.0,27,0.00,,,0.00,0.000000,,2013-06-10 06:42:00,
2013-06-09 23:52:00,52.0,19.0,-100.00,SE,146,4.0,9.0,27,0.00,,,0.00,0.000000,,2013-06-10 06:52:00,